createdAt,value
2018-09-02T00:01:25.204Z,10.20
2018-09-02T00:03:53.401Z,10.20
2018-09-02T00:06:21.575Z,10.10
2018-09-02T00:08:49.753Z,10.10
2018-09-02T00:11:17.956Z,10.00
2018-09-02T00:13:46.128Z,10.00
2018-09-02T00:16:14.308Z,10.00
2018-09-02T00:18:42.488Z,10.00
2018-09-02T00:21:10.685Z,9.90
2018-09-02T00:23:38.848Z,9.90
2018-09-02T00:26:07.037Z,9.90
2018-09-02T00:28:35.225Z,9.90
2018-09-02T00:31:03.410Z,9.90
2018-09-02T00:33:31.568Z,9.90
2018-09-02T00:35:59.724Z,9.80
2018-09-02T00:38:27.893Z,9.80
2018-09-02T00:40:56.062Z,9.80
2018-09-02T00:43:24.232Z,9.70
2018-09-02T00:45:52.401Z,9.70
2018-09-02T00:48:20.661Z,9.70
2018-09-02T00:50:48.826Z,9.70
2018-09-02T00:53:16.987Z,9.60
2018-09-02T00:55:45.143Z,9.60
2018-09-02T00:58:13.313Z,9.60
2018-09-02T01:00:41.489Z,9.60
2018-09-02T01:03:09.655Z,9.50
2018-09-02T01:05:37.816Z,9.50
2018-09-02T01:08:06.000Z,9.50
2018-09-02T01:10:34.159Z,9.40
2018-09-02T01:13:02.389Z,9.40
2018-09-02T01:15:30.568Z,9.40
2018-09-02T01:17:58.744Z,9.40
2018-09-02T01:20:26.941Z,9.40
2018-09-02T01:22:55.153Z,9.30
2018-09-02T01:25:23.297Z,9.30
2018-09-02T01:27:51.472Z,9.30
2018-09-02T01:30:19.638Z,9.30
2018-09-02T01:32:47.817Z,9.20
2018-09-02T01:35:21.452Z,9.20
2018-09-02T01:37:49.621Z,9.20
2018-09-02T01:40:18.022Z,9.20
2018-09-02T01:42:46.198Z,9.10
2018-09-02T01:45:14.363Z,9.20
2018-09-02T01:47:42.551Z,9.10
2018-09-02T01:50:10.711Z,9.10
2018-09-02T01:52:38.884Z,9.10
2018-09-02T01:55:07.075Z,9.00
2018-09-02T01:57:35.255Z,9.00
2018-09-02T02:00:03.514Z,9.00
2018-09-02T02:02:31.668Z,9.00
2018-09-02T02:04:59.936Z,9.00
2018-09-02T02:07:28.128Z,8.90
2018-09-02T02:09:56.297Z,8.90
2018-09-02T02:12:24.456Z,8.90
2018-09-02T02:14:52.613Z,8.90
2018-09-02T02:17:20.790Z,8.90
2018-09-02T02:19:48.948Z,8.90
2018-09-02T02:22:17.164Z,8.80
2018-09-02T02:24:45.313Z,8.80
2018-09-02T02:27:13.492Z,8.80
2018-09-02T02:29:41.655Z,8.80
2018-09-02T02:32:09.820Z,8.70
2018-09-02T02:34:37.992Z,8.70
2018-09-02T02:37:06.165Z,8.70
2018-09-02T02:39:34.341Z,8.70
2018-09-02T02:42:02.512Z,8.70
2018-09-02T02:44:30.704Z,8.60
2018-09-02T02:46:58.880Z,8.60
2018-09-02T02:49:27.060Z,8.60
2018-09-02T02:51:55.232Z,8.60
2018-09-02T02:54:23.395Z,8.60
2018-09-02T02:56:51.544Z,8.50
2018-09-02T02:59:19.740Z,8.50
2018-09-02T03:01:47.905Z,8.50
2018-09-02T03:04:16.092Z,8.50
2018-09-02T03:06:44.252Z,8.50
2018-09-02T03:09:12.858Z,8.50
2018-09-02T03:11:41.294Z,8.50
2018-09-02T03:14:10.205Z,8.50
2018-09-02T03:16:38.401Z,8.40
2018-09-02T03:19:06.801Z,8.40
2018-09-02T03:21:34.974Z,8.40
2018-09-02T03:24:03.151Z,8.40
2018-09-02T03:26:31.308Z,8.40
2018-09-02T03:28:59.573Z,8.40
2018-09-02T03:31:27.788Z,8.40
2018-09-02T03:33:56.004Z,8.40
2018-09-02T03:36:24.174Z,8.40
2018-09-02T03:38:52.338Z,8.30
2018-09-02T03:41:20.527Z,8.30
2018-09-02T03:43:48.697Z,8.30
2018-09-02T03:46:16.872Z,8.30
2018-09-02T03:48:45.041Z,8.30
2018-09-02T03:51:13.213Z,8.20
2018-09-02T03:53:41.380Z,8.20
2018-09-02T03:56:09.549Z,8.20
2018-09-02T03:58:37.737Z,8.20
2018-09-02T04:01:06.129Z,8.20
2018-09-02T04:03:34.298Z,8.20
2018-09-02T04:06:02.449Z,8.20
2018-09-02T04:08:30.624Z,8.20
2018-09-02T04:10:58.793Z,8.10
2018-09-02T04:13:26.971Z,8.10
2018-09-02T04:15:55.128Z,8.10
2018-09-02T04:18:23.292Z,8.10
2018-09-02T04:20:51.457Z,8.10
2018-09-02T04:23:19.636Z,8.10
2018-09-02T04:25:47.806Z,8.00
2018-09-02T04:28:15.968Z,8.00
2018-09-02T04:30:44.151Z,8.00
2018-09-02T04:33:12.348Z,8.00
2018-09-02T04:35:40.524Z,8.00
2018-09-02T04:38:08.714Z,7.90
2018-09-02T04:40:36.876Z,7.90
2018-09-02T04:43:05.069Z,7.90
2018-09-02T04:45:33.236Z,7.90
2018-09-02T04:48:01.495Z,7.90
2018-09-02T04:50:29.656Z,7.90
2018-09-02T04:52:57.827Z,7.90
2018-09-02T04:55:25.998Z,7.90
2018-09-02T04:57:54.164Z,7.90
2018-09-02T05:00:22.390Z,7.90
2018-09-02T05:02:51.136Z,7.90
2018-09-02T05:05:19.324Z,7.90
2018-09-02T05:07:47.508Z,7.90
2018-09-02T05:10:15.697Z,7.90
2018-09-02T05:12:43.871Z,7.90
2018-09-02T05:15:12.056Z,7.90
2018-09-02T05:17:40.231Z,7.90
2018-09-02T05:20:08.424Z,7.90
2018-09-02T05:22:36.624Z,7.90
2018-09-02T05:25:04.811Z,7.90
2018-09-02T05:27:32.985Z,7.90
2018-09-02T05:30:01.190Z,7.90
2018-09-02T05:32:29.354Z,7.90
2018-09-02T05:34:57.531Z,7.90
2018-09-02T05:37:25.701Z,8.00
2018-09-02T05:39:53.876Z,8.00
2018-09-02T05:42:22.062Z,8.00
2018-09-02T05:44:50.337Z,8.00
2018-09-02T05:47:18.512Z,8.10
2018-09-02T05:49:46.689Z,8.10
2018-09-02T05:52:15.063Z,8.20
2018-09-02T05:54:43.220Z,8.20
2018-09-02T05:57:11.390Z,8.30
2018-09-02T05:59:39.654Z,8.30
2018-09-02T06:02:07.833Z,8.40
2018-09-02T06:04:36.001Z,8.40
2018-09-02T06:07:04.171Z,8.50
2018-09-02T06:09:32.348Z,8.60
2018-09-02T06:12:00.516Z,8.60
2018-09-02T06:14:28.933Z,8.70
2018-09-02T06:16:57.108Z,8.80
2018-09-02T06:19:25.298Z,8.80
2018-09-02T06:21:53.500Z,8.90
2018-09-02T06:24:21.865Z,9.00
2018-09-02T06:26:50.038Z,9.10
2018-09-02T06:29:18.248Z,9.20
2018-09-02T06:31:46.439Z,9.30
2018-09-02T06:34:14.611Z,9.40
2018-09-02T06:36:42.782Z,9.50
2018-09-02T06:39:12.220Z,9.60
2018-09-02T06:41:40.388Z,9.70
2018-09-02T06:44:08.801Z,9.80
2018-09-02T06:46:36.973Z,9.90
2018-09-02T06:49:05.329Z,10.00
2018-09-02T06:51:33.568Z,10.20
2018-09-02T06:54:01.711Z,10.40
2018-09-02T06:56:30.480Z,10.50
2018-09-02T06:58:58.723Z,10.60
2018-09-02T07:01:26.861Z,10.80
2018-09-02T07:03:55.041Z,10.90
2018-09-02T07:06:23.205Z,11.10
2018-09-02T07:08:51.425Z,11.30
2018-09-02T07:11:19.598Z,11.40
2018-09-02T07:13:47.785Z,11.60
2018-09-02T07:16:15.965Z,11.80
2018-09-02T07:18:44.143Z,12.00
2018-09-02T07:21:12.348Z,12.20
2018-09-02T07:23:40.520Z,12.40
2018-09-02T07:26:08.702Z,12.50
2018-09-02T07:28:36.936Z,12.70
2018-09-02T07:31:05.168Z,13.00
2018-09-02T07:33:33.367Z,13.10
2018-09-02T07:36:01.573Z,13.30
2018-09-02T07:38:29.777Z,13.40
2018-09-02T07:40:58.198Z,13.60
2018-09-02T07:43:26.450Z,13.70
2018-09-02T07:45:54.640Z,13.90
2018-09-02T07:48:22.842Z,14.00
2018-09-02T07:50:51.021Z,14.10
2018-09-02T07:53:19.193Z,14.30
2018-09-02T07:55:47.390Z,14.40
2018-09-02T07:58:15.572Z,14.60
2018-09-02T08:00:43.757Z,14.60
2018-09-02T08:03:11.932Z,14.70
2018-09-02T08:05:40.126Z,14.90
2018-09-02T08:08:08.335Z,15.00
2018-09-02T08:10:36.513Z,15.20
2018-09-02T08:13:04.700Z,15.30
2018-09-02T08:15:32.864Z,15.50
2018-09-02T08:18:01.075Z,15.60
2018-09-02T08:20:29.272Z,15.70
2018-09-02T08:22:57.582Z,15.80
2018-09-02T08:25:25.758Z,15.80
2018-09-02T08:27:53.955Z,15.90
2018-09-02T08:30:22.281Z,16.10
2018-09-02T08:32:50.475Z,16.20
2018-09-02T08:35:18.681Z,16.30
2018-09-02T08:37:46.853Z,16.40
2018-09-02T08:40:15.036Z,16.50
2018-09-02T08:42:43.261Z,16.60
2018-09-02T08:45:11.444Z,16.70
2018-09-02T08:47:39.812Z,16.80
2018-09-02T08:50:07.985Z,16.90
2018-09-02T08:52:36.167Z,17.00
2018-09-02T08:55:04.356Z,17.10
2018-09-02T08:57:32.575Z,17.20
2018-09-02T09:00:01.275Z,17.30
2018-09-02T09:02:29.977Z,17.40
2018-09-02T09:04:58.435Z,17.60
2018-09-02T09:07:27.923Z,17.60
2018-09-02T09:09:56.067Z,17.70
2018-09-02T09:12:24.283Z,17.80
2018-09-02T09:14:52.452Z,17.90
2018-09-02T09:17:20.628Z,18.00
2018-09-02T09:19:48.836Z,18.10
2018-09-02T09:22:17.017Z,18.20
2018-09-02T09:24:45.196Z,18.20
2018-09-02T09:27:13.385Z,18.30
2018-09-02T09:29:41.841Z,18.40
2018-09-02T09:32:10.194Z,18.40
2018-09-02T09:34:38.300Z,18.50
2018-09-02T09:37:06.524Z,18.60
2018-09-02T09:39:34.692Z,18.70
2018-09-02T09:42:02.875Z,18.80
2018-09-02T09:44:31.048Z,18.90
2018-09-02T09:46:59.298Z,19.00
2018-09-02T09:49:27.500Z,19.20
2018-09-02T09:51:55.673Z,19.30
2018-09-02T09:54:23.841Z,19.40
2018-09-02T09:56:52.016Z,19.40
2018-09-02T09:59:20.218Z,19.50
2018-09-02T10:01:48.379Z,19.60
2018-09-02T10:04:16.587Z,19.70
2018-09-02T10:06:44.840Z,19.70
2018-09-02T10:09:43.937Z,19.80
2018-09-02T10:12:12.131Z,19.90
2018-09-02T10:14:40.293Z,19.90
2018-09-02T10:17:08.502Z,20.00
2018-09-02T10:19:36.645Z,20.00
2018-09-02T10:22:04.812Z,20.10
2018-09-02T10:24:32.989Z,20.10
2018-09-02T10:27:01.143Z,20.10
2018-09-02T10:29:29.305Z,20.10
2018-09-02T10:31:57.489Z,20.10
2018-09-02T10:34:25.657Z,20.20
2018-09-02T10:36:53.844Z,20.30
2018-09-02T10:39:22.045Z,20.30
2018-09-02T10:41:50.244Z,20.30
2018-09-02T10:44:18.599Z,20.40
2018-09-02T10:46:46.774Z,20.50
2018-09-02T10:49:15.061Z,20.50
2018-09-02T10:51:43.234Z,20.50
2018-09-02T10:54:11.496Z,20.50
2018-09-02T10:56:39.776Z,20.50
2018-09-02T10:59:08.036Z,20.60
2018-09-02T11:01:36.196Z,20.60
2018-09-02T11:04:04.395Z,20.70
2018-09-02T11:06:32.652Z,20.70
2018-09-02T11:09:00.832Z,20.80
2018-09-02T11:11:29.001Z,20.90
2018-09-02T11:13:57.293Z,20.90
2018-09-02T11:16:25.337Z,20.90
2018-09-02T11:18:53.695Z,20.90
2018-09-02T11:21:21.906Z,21.00
2018-09-02T11:23:50.073Z,21.10
2018-09-02T11:26:18.268Z,21.10
2018-09-02T11:28:46.647Z,21.10
2018-09-02T11:31:14.824Z,21.10
2018-09-02T11:33:43.004Z,21.10
2018-09-02T11:36:11.186Z,21.20
2018-09-02T11:38:39.373Z,21.10
2018-09-02T11:41:07.569Z,21.10
2018-09-02T11:43:35.845Z,21.20
2018-09-02T11:46:04.262Z,21.20
2018-09-02T11:48:32.474Z,21.20
2018-09-02T11:51:00.808Z,21.20
2018-09-02T11:53:28.994Z,21.20
2018-09-02T11:55:57.155Z,21.30
2018-09-02T11:58:25.339Z,21.40
2018-09-02T12:00:53.500Z,21.40
2018-09-02T12:03:21.676Z,21.50
2018-09-02T12:05:51.279Z,21.60
2018-09-02T12:08:19.860Z,21.70
2018-09-02T12:10:48.033Z,21.70
2018-09-02T12:13:16.409Z,21.70
2018-09-02T12:15:46.517Z,21.80
2018-09-02T12:18:15.496Z,21.90
2018-09-02T12:20:43.652Z,21.90
2018-09-02T12:23:11.831Z,22.00
2018-09-02T12:25:40.112Z,22.10
2018-09-02T12:28:08.517Z,22.10
2018-09-02T12:30:36.680Z,22.20
2018-09-02T12:33:04.856Z,22.20
2018-09-02T12:35:33.026Z,22.10
2018-09-02T12:38:01.212Z,22.20
2018-09-02T12:40:29.384Z,22.20
2018-09-02T12:42:57.552Z,22.20
2018-09-02T12:45:25.717Z,22.10
2018-09-02T12:47:53.988Z,22.10
2018-09-02T12:50:22.057Z,22.10
2018-09-02T12:52:50.422Z,22.10
2018-09-02T12:55:18.628Z,22.10
2018-09-02T12:57:46.759Z,22.10
2018-09-02T13:00:14.941Z,22.10
2018-09-02T13:02:43.098Z,22.20
2018-09-02T13:05:11.260Z,22.30
2018-09-02T13:07:39.429Z,22.40
2018-09-02T13:10:07.608Z,22.40
2018-09-02T13:12:35.901Z,22.40
2018-09-02T13:15:04.341Z,22.40
2018-09-02T13:17:32.503Z,22.30
2018-09-02T13:20:00.675Z,22.30
2018-09-02T13:22:28.840Z,22.30
2018-09-02T13:24:57.181Z,22.20
2018-09-02T13:27:25.370Z,22.10
2018-09-02T13:29:53.552Z,22.20
2018-09-02T13:32:21.709Z,22.20
2018-09-02T13:34:49.889Z,22.20
2018-09-02T13:37:18.052Z,22.20
2018-09-02T13:39:46.244Z,22.20
2018-09-02T13:42:14.820Z,22.30
2018-09-02T13:44:43.009Z,22.50
2018-09-02T13:47:11.225Z,22.60
2018-09-02T13:49:39.516Z,22.50
2018-09-02T13:52:08.164Z,22.50
2018-09-02T13:54:36.586Z,22.50
2018-09-02T13:57:05.177Z,22.50
2018-09-02T13:59:33.370Z,22.50
2018-09-02T14:02:01.546Z,22.50
2018-09-02T14:04:29.717Z,22.40
2018-09-02T14:06:57.886Z,22.40
2018-09-02T14:09:26.081Z,22.40
2018-09-02T14:11:54.265Z,22.30
2018-09-02T14:14:22.456Z,22.30
2018-09-02T14:16:50.783Z,22.20
2018-09-02T14:19:19.069Z,22.20
2018-09-02T14:21:47.240Z,22.20
2018-09-02T14:24:15.428Z,22.20
2018-09-02T14:26:43.840Z,22.20
2018-09-02T14:29:12.029Z,22.10
2018-09-02T14:31:40.238Z,22.10
2018-09-02T14:34:08.419Z,22.00
2018-09-02T14:36:36.576Z,21.90
2018-09-02T14:39:07.761Z,21.90
2018-09-02T14:41:35.935Z,21.80
2018-09-02T14:44:04.183Z,21.80
2018-09-02T14:46:32.494Z,21.70
2018-09-02T14:49:00.913Z,21.70
2018-09-02T14:51:29.088Z,21.70
2018-09-02T14:53:57.472Z,21.70
2018-09-02T14:56:25.646Z,21.60
2018-09-02T14:58:53.820Z,21.60
2018-09-02T15:01:22.054Z,21.60
2018-09-02T15:03:50.216Z,21.60
2018-09-02T15:06:18.397Z,21.50
2018-09-02T15:08:46.557Z,21.50
2018-09-02T15:11:14.948Z,21.50
2018-09-02T15:13:43.104Z,21.50
2018-09-02T15:16:11.665Z,21.50
2018-09-02T15:18:39.829Z,21.50
2018-09-02T15:21:08.079Z,21.50
2018-09-02T15:23:36.292Z,21.40
2018-09-02T15:26:04.467Z,21.50
2018-09-02T15:28:32.772Z,21.50
2018-09-02T15:31:00.973Z,21.50
2018-09-02T15:33:29.448Z,21.50
2018-09-02T15:35:57.629Z,21.50
2018-09-02T15:38:25.784Z,21.50
2018-09-02T15:40:53.982Z,21.50
2018-09-02T15:43:22.154Z,21.50
2018-09-02T15:45:51.345Z,21.50
2018-09-02T15:48:19.512Z,21.50
2018-09-02T15:50:47.668Z,21.50
2018-09-02T15:53:15.846Z,21.50
2018-09-02T15:55:44.036Z,21.50
2018-09-02T15:58:12.205Z,21.40
2018-09-02T16:00:40.462Z,21.40
2018-09-02T16:03:08.652Z,21.40
2018-09-02T16:05:36.829Z,21.30
2018-09-02T16:08:05.156Z,21.30
2018-09-02T16:10:33.316Z,21.30
2018-09-02T16:13:01.490Z,21.30
2018-09-02T16:15:29.660Z,21.30
2018-09-02T16:17:57.829Z,21.30
2018-09-02T16:20:26.009Z,21.30
2018-09-02T16:22:54.179Z,21.40
2018-09-02T16:25:22.341Z,21.40
2018-09-02T16:27:50.603Z,21.30
2018-09-02T16:30:19.027Z,21.40
2018-09-02T16:32:47.184Z,21.40
2018-09-02T16:35:15.362Z,21.40
2018-09-02T16:37:43.520Z,21.50
2018-09-02T16:40:11.673Z,21.50
2018-09-02T16:42:39.850Z,21.60
2018-09-02T16:45:08.039Z,21.60
2018-09-02T16:47:36.202Z,21.60
2018-09-02T16:50:04.417Z,21.60
2018-09-02T16:52:32.592Z,21.60
2018-09-02T16:55:00.756Z,21.60
2018-09-02T16:57:28.935Z,21.60
2018-09-02T16:59:57.240Z,21.60
2018-09-02T17:02:25.626Z,21.60
2018-09-02T17:04:57.277Z,21.60
2018-09-02T17:07:25.449Z,21.70
2018-09-02T17:09:53.696Z,21.70
2018-09-02T17:12:22.006Z,21.70
2018-09-02T17:14:50.059Z,21.70
2018-09-02T17:17:18.236Z,21.70
2018-09-02T17:19:49.026Z,21.70
2018-09-02T17:22:17.206Z,21.70
2018-09-02T17:24:45.549Z,21.60
2018-09-02T17:27:13.938Z,21.60
2018-09-02T17:29:42.193Z,21.50
2018-09-02T17:32:13.796Z,21.50
2018-09-02T17:34:41.988Z,21.40
2018-09-02T17:37:10.197Z,21.30
2018-09-02T17:39:38.376Z,21.20
2018-09-02T17:42:06.550Z,21.20
2018-09-02T17:44:34.776Z,21.10
2018-09-02T17:47:03.183Z,21.10
2018-09-02T17:49:31.452Z,21.00
2018-09-02T17:51:59.656Z,21.00
2018-09-02T17:54:27.833Z,20.90
2018-09-02T17:56:56.012Z,20.80
2018-09-02T17:59:24.287Z,20.80
2018-09-02T18:01:52.867Z,20.70
2018-09-02T18:04:21.062Z,20.70
2018-09-02T18:06:49.253Z,20.60
2018-09-02T18:09:17.546Z,20.60
2018-09-02T18:11:45.725Z,20.60
2018-09-02T18:14:13.894Z,20.50
2018-09-02T18:16:42.072Z,20.40
2018-09-02T18:19:10.245Z,20.30
2018-09-02T18:21:38.421Z,20.30
2018-09-02T18:24:06.669Z,20.20
2018-09-02T18:26:34.840Z,20.20
2018-09-02T18:29:03.008Z,20.10
2018-09-02T18:31:31.178Z,20.00
2018-09-02T18:33:59.353Z,19.90
2018-09-02T18:36:28.114Z,19.90
2018-09-02T18:38:56.172Z,19.80
2018-09-02T18:41:24.438Z,19.80
2018-09-02T18:43:52.528Z,19.70
2018-09-02T18:46:20.740Z,19.50
2018-09-02T18:48:48.926Z,19.70
2018-09-02T18:51:17.088Z,19.60
2018-09-02T18:53:45.367Z,19.60
2018-09-02T18:56:13.541Z,19.50
2018-09-02T18:58:41.717Z,19.50
2018-09-02T19:01:09.929Z,19.40
2018-09-02T19:03:38.188Z,19.40
2018-09-02T19:06:06.403Z,19.40
2018-09-02T19:08:34.584Z,19.40
2018-09-02T19:11:02.769Z,19.40
2018-09-02T19:13:30.944Z,19.40
2018-09-02T19:15:59.286Z,19.40
2018-09-02T19:18:27.417Z,19.50
2018-09-02T19:20:55.597Z,19.50
2018-09-02T19:23:23.794Z,19.40
2018-09-02T19:25:51.981Z,19.40
2018-09-02T19:28:20.231Z,19.40
2018-09-02T19:30:48.420Z,19.40
2018-09-02T19:33:16.591Z,19.30
2018-09-02T19:35:44.927Z,19.30
2018-09-02T19:38:13.096Z,19.30
2018-09-02T19:40:41.252Z,19.30
2018-09-02T19:43:09.436Z,19.30
2018-09-02T19:45:37.592Z,19.30
2018-09-02T19:48:05.781Z,19.30
2018-09-02T19:50:33.940Z,19.30
2018-09-02T19:53:02.119Z,19.30
2018-09-02T19:55:30.290Z,19.30
2018-09-02T19:57:58.520Z,19.30
2018-09-02T20:00:26.891Z,19.30
2018-09-02T20:02:55.082Z,19.30
2018-09-02T20:05:23.241Z,19.30
2018-09-02T20:07:51.397Z,19.20
2018-09-02T20:10:19.593Z,19.20
2018-09-02T20:12:47.822Z,19.20
2018-09-02T20:15:16.023Z,19.10
2018-09-02T20:17:44.198Z,19.10
2018-09-02T20:20:12.385Z,19.00
2018-09-02T20:22:40.548Z,19.00
2018-09-02T20:25:08.725Z,19.00
2018-09-02T20:27:36.912Z,18.90
2018-09-02T20:30:05.405Z,18.90
2018-09-02T20:32:33.593Z,18.90
2018-09-02T20:35:01.777Z,18.80
2018-09-02T20:37:29.972Z,17.90
2018-09-02T20:39:58.133Z,18.80
2018-09-02T20:42:26.314Z,18.80
2018-09-02T20:44:54.491Z,18.80
2018-09-02T20:47:22.657Z,18.70
2018-09-02T20:49:50.890Z,18.70
2018-09-02T20:52:19.069Z,18.70
2018-09-02T20:54:47.237Z,18.70
2018-09-02T20:57:15.400Z,18.70
2018-09-02T20:59:43.604Z,18.60
2018-09-02T21:02:11.797Z,18.60
2018-09-02T21:04:39.948Z,18.60
2018-09-02T21:07:08.117Z,18.60
2018-09-02T21:09:36.292Z,18.60
2018-09-02T21:12:04.464Z,18.50
2018-09-02T21:14:32.629Z,18.50
2018-09-02T21:17:00.856Z,18.50
2018-09-02T21:19:29.001Z,18.50
2018-09-02T21:21:57.175Z,18.50
2018-09-02T21:24:25.340Z,18.40
2018-09-02T21:26:53.505Z,18.40
2018-09-02T21:29:21.696Z,18.40
2018-09-02T21:31:49.857Z,18.40
2018-09-02T21:34:18.046Z,18.30
2018-09-02T21:36:46.244Z,18.30
2018-09-02T21:39:14.415Z,18.30
2018-09-02T21:41:42.618Z,18.30
2018-09-02T21:44:10.855Z,18.30
2018-09-02T21:46:39.023Z,18.20
2018-09-02T21:49:07.197Z,18.20
2018-09-02T21:51:35.403Z,18.20
2018-09-02T21:54:03.717Z,18.20
2018-09-02T21:56:31.879Z,18.20
2018-09-02T21:59:00.089Z,18.20
2018-09-02T22:01:28.252Z,18.20
2018-09-02T22:03:56.454Z,18.20
2018-09-02T22:06:24.620Z,18.10
2018-09-02T22:08:52.780Z,18.10
2018-09-02T22:11:20.933Z,18.10
2018-09-02T22:13:49.111Z,18.10
2018-09-02T22:16:17.290Z,18.00
2018-09-02T22:18:45.452Z,18.00
2018-09-02T22:21:13.603Z,18.00
2018-09-02T22:23:41.884Z,18.00
2018-09-02T22:26:10.036Z,18.00
2018-09-02T22:28:38.213Z,17.90
2018-09-02T22:31:06.375Z,17.90
2018-09-02T22:33:34.552Z,17.90
2018-09-02T22:36:03.033Z,17.90
2018-09-02T22:38:31.220Z,17.90
2018-09-02T22:40:59.392Z,17.90
2018-09-02T22:43:27.560Z,17.80
2018-09-02T22:45:55.736Z,17.80
2018-09-02T22:48:23.978Z,17.80
2018-09-02T22:50:52.160Z,17.80
2018-09-02T22:53:20.324Z,17.80
2018-09-02T22:55:48.503Z,17.70
2018-09-02T22:58:16.676Z,17.70
2018-09-02T23:00:44.837Z,17.70
2018-09-02T23:03:13.100Z,17.70
2018-09-02T23:05:41.300Z,17.60
2018-09-02T23:08:09.491Z,17.60
2018-09-02T23:10:37.779Z,17.50
2018-09-02T23:13:06.084Z,17.50
2018-09-02T23:15:34.262Z,17.50
2018-09-02T23:18:02.441Z,17.40
2018-09-02T23:20:30.623Z,17.40
2018-09-02T23:22:58.784Z,17.40
2018-09-02T23:25:26.965Z,17.30
2018-09-02T23:27:55.133Z,17.20
2018-09-02T23:30:23.304Z,17.20
2018-09-02T23:32:51.470Z,17.10
2018-09-02T23:35:19.657Z,17.10
2018-09-02T23:37:47.946Z,17.00
2018-09-02T23:40:16.208Z,17.00
2018-09-02T23:42:44.372Z,16.90
2018-09-02T23:45:12.552Z,16.90
2018-09-02T23:47:40.717Z,16.80
2018-09-02T23:50:08.895Z,16.80
2018-09-02T23:52:37.074Z,16.70
2018-09-02T23:55:05.244Z,16.70
2018-09-02T23:57:33.422Z,16.60
